Time;durP1;ratioP1;P1;durP2;ratioP2;P2;SDS_P1;SDS_P2;PMS_P1;PMS_P2;Temp;Humidity;BMP_temperature;BMP_pressure;BME280_temperature;BME280_humidity;BME280_pressure;Samples;Min_cycle;Max_cycle;Signal;HPM_P1;HPM_P2
2023/08/24 00:01:08;;;;;;;4.97;4.37;;;16.90;99.90;;;;;;4996733;28;96503;-33
2023/08/24 00:03:34;;;;;;;6.20;4.25;;;16.90;99.90;;;;;;4996734;28;93124;-33
2023/08/24 00:06:00;;;;;;;5.50;4.70;;;16.80;99.90;;;;;;4994728;28;93035;-33
2023/08/24 00:08:26;;;;;;;8.45;4.82;;;16.80;99.90;;;;;;4983364;28;94348;-31
2023/08/24 00:10:52;;;;;;;7.30;4.47;;;16.80;99.90;;;;;;4975841;28;95803;-34
2023/08/24 00:13:18;;;;;;;6.55;5.15;;;16.80;99.90;;;;;;4976493;28;93538;-34
2023/08/24 00:15:45;;;;;;;5.88;5.22;;;16.70;99.90;;;;;;4973413;28;91929;-32
2023/08/24 00:18:11;;;;;;;5.55;5.05;;;16.70;99.90;;;;;;4975299;28;94911;-35
2023/08/24 00:20:37;;;;;;;6.50;4.50;;;16.70;99.90;;;;;;4976971;28;94180;-32
2023/08/24 00:23:03;;;;;;;4.93;4.35;;;16.60;99.90;;;;;;4976595;28;95660;-36
2023/08/24 00:25:30;;;;;;;5.90;5.35;;;16.60;99.90;;;;;;4976087;28;95091;-32
2023/08/24 00:27:56;;;;;;;4.80;4.32;;;16.50;99.90;;;;;;4977214;28;95228;-38
2023/08/24 00:30:23;;;;;;;8.43;5.18;;;16.40;99.90;;;;;;4976658;28;94588;-33
2023/08/24 00:32:49;;;;;;;7.85;5.65;;;16.30;99.90;;;;;;4976073;28;93652;-34
2023/08/24 00:35:15;;;;;;;4.97;4.47;;;16.20;99.90;;;;;;4982706;28;93417;-38
2023/08/24 00:37:41;;;;;;;7.60;4.45;;;16.10;99.90;;;;;;4982717;28;94530;-33
2023/08/24 00:40:09;;;;;;;6.70;5.10;;;16.20;99.90;;;;;;4976226;28;94580;-37
2023/08/24 00:42:43;;;;;;;6.68;5.47;;;16.10;99.90;;;;;;4989732;28;94389;-35
2023/08/24 00:45:10;;;;;;;6.65;5.97;;;16.00;99.90;;;;;;4983940;28;94333;-33
2023/08/24 00:47:40;;;;;;;9.73;5.70;;;16.00;99.90;;;;;;4994419;28;95470;-36
2023/08/24 00:50:08;;;;;;;5.97;5.50;;;16.00;99.90;;;;;;4994751;28;95486;-32
2023/08/24 00:52:35;;;;;;;6.95;5.32;;;15.90;99.90;;;;;;4996442;28;93934;-38
2023/08/24 00:55:01;;;;;;;7.53;6.38;;;15.90;99.90;;;;;;4994915;28;92909;-35
2023/08/24 00:57:28;;;;;;;6.13;5.50;;;15.90;99.90;;;;;;4985446;28;95643;-31
2023/08/24 00:59:55;;;;;;;6.13;4.93;;;15.80;99.90;;;;;;4990144;28;94959;-33
2023/08/24 01:02:21;;;;;;;6.87;6.17;;;15.80;99.90;;;;;;4997620;28;94872;-33
2023/08/24 01:04:47;;;;;;;7.25;6.03;;;15.80;99.90;;;;;;4987206;28;93681;-34
2023/08/24 01:07:15;;;;;;;7.63;5.70;;;15.90;99.90;;;;;;4990327;28;95560;-34
2023/08/24 01:09:42;;;;;;;8.75;5.32;;;15.90;99.90;;;;;;4998818;28;94042;-34
2023/08/24 01:12:22;;;;;;;7.68;5.53;;;15.90;99.90;;;;;;4982864;28;95789;-35
2023/08/24 01:15:18;;;;;;;7.30;6.60;;;15.90;99.90;;;;;;4979823;28;92339;-31
2023/08/24 01:17:47;;;;;;;9.73;7.63;;;15.90;99.90;;;;;;4978555;28;94810;-35
2023/08/24 01:20:15;;;;;;;10.48;7.03;;;15.90;99.90;;;;;;4979776;28;93186;-36
2023/08/24 01:22:49;;;;;;;10.75;7.40;;;15.80;99.90;;;;;;4998516;28;92928;-34
2023/08/24 01:25:43;;;;;;;9.05;6.07;;;15.90;99.90;;;;;;4993347;28;92892;-36
2023/08/24 01:28:11;;;;;;;7.55;5.95;;;15.80;99.90;;;;;;4979719;28;94652;-36
2023/08/24 01:30:37;;;;;;;3.92;3.63;;;15.60;99.90;;;;;;4990583;28;94449;-35
2023/08/24 01:33:04;;;;;;;3.78;3.47;;;15.60;99.90;;;;;;4981256;28;92627;-34
2023/08/24 01:35:31;;;;;;;3.75;2.55;;;15.60;99.90;;;;;;4987593;28;94059;-34
2023/08/24 01:37:57;;;;;;;3.78;3.47;;;15.50;99.90;;;;;;4983532;28;95948;-33
2023/08/24 01:40:53;;;;;;;6.28;4.85;;;15.60;99.90;;;;;;4979621;28;95462;-35
2023/08/24 01:43:21;;;;;;;5.88;5.32;;;15.60;99.90;;;;;;4974295;28;92272;-34
2023/08/24 01:45:48;;;;;;;6.40;5.63;;;15.60;99.90;;;;;;4984085;28;94374;-35
2023/08/24 01:48:14;;;;;;;10.95;5.82;;;15.50;99.90;;;;;;4997169;28;94747;-33
2023/08/24 01:50:41;;;;;;;13.43;10.43;;;15.50;99.90;;;;;;4992081;28;94762;-32
2023/08/24 01:53:07;;;;;;;11.48;10.38;;;15.60;99.90;;;;;;4989652;28;93676;-36
2023/08/24 01:55:33;;;;;;;10.43;8.77;;;15.70;99.90;;;;;;4983158;28;91490;-34
2023/08/24 01:58:00;;;;;;;17.25;10.20;;;15.80;99.90;;;;;;4990498;28;93474;-37
2023/08/24 02:00:25;;;;;;;14.88;9.73;;;15.90;99.90;;;;;;4989998;28;95849;-34
2023/08/24 02:02:51;;;;;;;12.35;10.82;;;15.90;99.90;;;;;;4997066;28;94665;-32
2023/08/24 02:05:17;;;;;;;13.90;11.63;;;15.80;99.90;;;;;;4996582;28;92084;-34
2023/08/24 02:07:42;;;;;;;13.27;11.88;;;15.80;99.90;;;;;;4989773;28;94932;-34
2023/08/24 02:10:08;;;;;;;12.13;10.93;;;15.80;99.90;;;;;;4977404;28;94489;-33
2023/08/24 02:12:34;;;;;;;11.95;10.85;;;15.80;99.90;;;;;;4978338;28;94037;-34
2023/08/24 02:15:00;;;;;;;14.05;12.07;;;15.80;99.90;;;;;;4978032;28;94869;-40
2023/08/24 02:17:26;;;;;;;13.45;11.43;;;15.80;99.90;;;;;;4977256;28;94703;-34
2023/08/24 02:19:52;;;;;;;14.38;11.43;;;15.90;99.90;;;;;;4976160;28;94564;-35
2023/08/24 02:22:18;;;;;;;13.48;12.07;;;15.90;99.90;;;;;;4996940;28;92182;-32
2023/08/24 02:24:43;;;;;;;14.07;11.77;;;15.90;99.90;;;;;;4984267;28;94848;-35
2023/08/24 02:27:09;;;;;;;14.73;12.48;;;15.90;99.90;;;;;;4979050;28;95363;-38
2023/08/24 02:29:34;;;;;;;13.27;11.65;;;16.00;99.90;;;;;;4979098;28;95009;-37
2023/08/24 02:32:00;;;;;;;13.40;12.02;;;16.00;99.90;;;;;;4984863;28;95293;-37
2023/08/24 02:34:26;;;;;;;17.20;13.68;;;16.00;99.90;;;;;;4985199;28;93458;-31
2023/08/24 02:36:52;;;;;;;17.60;14.68;;;16.00;99.90;;;;;;4979992;28;95203;-31
2023/08/24 02:39:17;;;;;;;17.30;12.52;;;16.00;99.90;;;;;;4979662;28;94255;-35
2023/08/24 02:41:43;;;;;;;16.65;14.18;;;16.00;99.90;;;;;;4979488;28;94510;-34
2023/08/24 02:44:09;;;;;;;19.38;15.40;;;16.00;99.90;;;;;;4979788;28;92913;-33
2023/08/24 02:46:35;;;;;;;18.63;13.73;;;16.00;99.90;;;;;;4989426;28;96299;-33
2023/08/24 02:49:00;;;;;;;18.25;14.75;;;16.00;99.90;;;;;;4995923;28;94179;-32
2023/08/24 02:51:26;;;;;;;17.52;14.52;;;16.00;99.90;;;;;;4995935;28;93165;-34
2023/08/24 02:53:51;;;;;;;19.15;14.68;;;16.00;99.90;;;;;;4995135;28;93036;-33
2023/08/24 02:56:17;;;;;;;18.77;15.30;;;16.00;99.90;;;;;;4995939;28;94960;-32
2023/08/24 02:58:43;;;;;;;15.95;14.35;;;16.00;99.90;;;;;;4990489;28;93625;-32
2023/08/24 03:01:09;;;;;;;19.38;15.45;;;16.00;99.90;;;;;;4988917;28;92637;-32
2023/08/24 03:03:36;;;;;;;18.25;13.57;;;16.00;99.90;;;;;;4990308;28;94705;-32
2023/08/24 03:06:04;;;;;;;22.70;16.35;;;16.00;99.90;;;;;;4989577;28;94847;-33
2023/08/24 03:08:31;;;;;;;16.48;14.70;;;16.00;99.90;;;;;;4988344;28;94698;-31
2023/08/24 03:10:58;;;;;;;19.07;13.87;;;16.00;99.90;;;;;;4983595;28;94617;-33
2023/08/24 03:13:24;;;;;;;16.13;13.63;;;15.90;99.90;;;;;;4989322;28;93975;-31
2023/08/24 03:15:50;;;;;;;15.75;12.95;;;16.00;99.90;;;;;;4981867;28;95810;-35
2023/08/24 03:18:17;;;;;;;15.35;13.65;;;16.00;99.90;;;;;;4989180;28;95889;-32
2023/08/24 03:20:43;;;;;;;16.55;14.85;;;16.00;99.90;;;;;;4989567;28;92706;-34
2023/08/24 03:23:09;;;;;;;15.40;12.25;;;15.90;99.90;;;;;;4988967;28;93472;-35
2023/08/24 03:25:37;;;;;;;15.52;12.80;;;15.90;99.90;;;;;;4984360;28;94707;-32
2023/08/24 03:28:03;;;;;;;13.85;11.93;;;15.90;99.90;;;;;;4989709;28;94126;-34
2023/08/24 03:30:29;;;;;;;13.18;11.65;;;15.80;99.90;;;;;;4988220;28;94513;-32
2023/08/24 03:32:55;;;;;;;16.15;12.20;;;15.90;99.90;;;;;;4988807;28;92899;-38
2023/08/24 03:35:20;;;;;;;19.33;12.32;;;15.90;99.90;;;;;;4984359;28;94803;-35
2023/08/24 03:37:46;;;;;;;15.95;11.20;;;15.90;99.90;;;;;;4987828;28;95632;-36
2023/08/24 03:40:12;;;;;;;14.73;11.20;;;15.90;99.90;;;;;;4984096;28;95196;-31
2023/08/24 03:42:38;;;;;;;11.25;10.18;;;15.80;99.90;;;;;;4987306;28;93113;-36
2023/08/24 03:45:04;;;;;;;16.88;12.18;;;15.80;99.90;;;;;;4984992;28;94024;-34
2023/08/24 03:47:30;;;;;;;11.73;10.23;;;15.80;99.90;;;;;;4988301;28;94511;-36
2023/08/24 03:49:55;;;;;;;14.43;10.68;;;15.80;99.90;;;;;;4989120;28;94986;-37
2023/08/24 03:52:21;;;;;;;15.88;11.52;;;15.70;99.90;;;;;;4994476;28;94383;-33
2023/08/24 03:54:47;;;;;;;15.15;12.77;;;15.60;99.90;;;;;;4994744;28;95609;-33
2023/08/24 03:57:12;;;;;;;14.40;12.88;;;15.70;99.90;;;;;;4995349;28;95045;-33
2023/08/24 03:59:38;;;;;;;14.02;11.93;;;15.70;99.90;;;;;;4994641;28;94327;-36
2023/08/24 04:02:03;;;;;;;11.98;10.65;;;15.70;99.90;;;;;;4995453;28;93579;-38
2023/08/24 04:04:32;;;;;;;23.02;13.15;;;15.70;99.90;;;;;;4975293;28;95738;-34
2023/08/24 04:06:58;;;;;;;15.02;11.60;;;15.60;99.90;;;;;;4987897;28;95257;-36
2023/08/24 04:09:24;;;;;;;16.05;13.45;;;15.60;99.90;;;;;;4975520;28;93357;-33
2023/08/24 04:11:49;;;;;;;12.55;11.25;;;15.60;99.90;;;;;;4957445;28;92612;-33
2023/08/24 04:14:15;;;;;;;14.98;12.02;;;15.60;99.90;;;;;;4974872;28;95235;-32
2023/08/24 04:16:41;;;;;;;13.63;11.77;;;15.50;99.90;;;;;;4975008;28;94459;-33
2023/08/24 04:19:08;;;;;;;12.98;11.68;;;15.60;99.90;;;;;;4982389;28;94328;-38
2023/08/24 04:21:33;;;;;;;15.15;11.65;;;15.50;99.90;;;;;;4994381;28;93533;-36
2023/08/24 04:23:59;;;;;;;12.75;11.45;;;15.50;99.90;;;;;;4974734;28;94845;-34
2023/08/24 04:26:25;;;;;;;19.48;11.77;;;15.40;99.90;;;;;;4974670;28;94382;-32
2023/08/24 04:28:51;;;;;;;11.95;10.77;;;15.40;99.90;;;;;;4983973;28;95763;-32
2023/08/24 04:31:16;;;;;;;14.18;12.52;;;15.40;99.90;;;;;;4975416;28;93577;-36
2023/08/24 04:33:42;;;;;;;17.42;13.70;;;15.30;99.90;;;;;;4991587;28;94742;-36
2023/08/24 04:36:08;;;;;;;14.48;11.13;;;15.30;99.90;;;;;;4988291;28;94550;-34
2023/08/24 04:38:34;;;;;;;17.23;12.05;;;15.40;99.90;;;;;;4974736;28;93163;-32
2023/08/24 04:41:00;;;;;;;15.23;11.85;;;15.30;99.90;;;;;;4975540;28;94557;-31
2023/08/24 04:43:26;;;;;;;20.13;12.93;;;15.30;99.90;;;;;;4986142;28;94791;-33
2023/08/24 04:45:54;;;;;;;14.65;11.18;;;15.40;99.90;;;;;;4989618;28;93491;-31
2023/08/24 04:48:21;;;;;;;12.88;11.50;;;15.30;99.90;;;;;;4994345;28;93513;-33
2023/08/24 04:50:48;;;;;;;14.77;13.23;;;15.30;99.90;;;;;;4990608;28;93935;-34
2023/08/24 04:53:16;;;;;;;13.05;10.93;;;15.30;99.90;;;;;;4992416;28;96108;-32
2023/08/24 04:55:42;;;;;;;15.32;11.05;;;15.20;99.90;;;;;;4991153;28;95340;-37
2023/08/24 04:58:08;;;;;;;11.63;10.50;;;15.20;99.90;;;;;;4994856;28;94003;-38
2023/08/24 05:00:35;;;;;;;12.35;10.85;;;15.30;99.90;;;;;;4994575;28;94146;-35
2023/08/24 05:03:01;;;;;;;11.27;10.02;;;15.20;99.90;;;;;;4997910;28;95406;-32
2023/08/24 05:05:29;;;;;;;13.13;10.77;;;15.20;99.90;;;;;;4984480;28;95153;-35
2023/08/24 05:07:55;;;;;;;12.27;11.02;;;15.20;99.90;;;;;;4978887;28;94232;-33
2023/08/24 05:10:21;;;;;;;14.25;12.02;;;15.30;99.90;;;;;;4978942;28;92489;-34
2023/08/24 05:12:46;;;;;;;19.50;11.73;;;15.40;99.90;;;;;;4978723;28;94961;-33
2023/08/24 05:15:13;;;;;;;15.50;12.25;;;15.40;99.90;;;;;;4978904;28;94714;-36
2023/08/24 05:17:39;;;;;;;15.63;12.55;;;15.40;99.90;;;;;;4971642;28;95088;-35
2023/08/24 05:20:06;;;;;;;13.02;11.55;;;15.40;99.90;;;;;;4984915;28;93522;-32
2023/08/24 05:22:32;;;;;;;17.27;11.63;;;15.40;99.90;;;;;;4990093;28;96823;-37
2023/08/24 05:24:57;;;;;;;12.98;10.52;;;15.50;99.90;;;;;;4982748;28;95513;-32
2023/08/24 05:27:23;;;;;;;14.32;10.52;;;15.60;99.90;;;;;;4991919;28;93093;-33
2023/08/24 05:29:49;;;;;;;12.90;11.60;;;15.70;99.90;;;;;;4990628;28;94521;-32
2023/08/24 05:32:14;;;;;;;13.45;12.10;;;15.80;99.90;;;;;;4982618;28;94534;-35
2023/08/24 05:34:40;;;;;;;11.15;9.95;;;15.80;99.90;;;;;;4990528;28;94709;-32
2023/08/24 05:37:05;;;;;;;13.27;11.27;;;15.90;99.90;;;;;;4983834;28;92137;-33
2023/08/24 05:39:31;;;;;;;13.82;10.90;;;16.00;99.90;;;;;;4983278;28;94114;-32
2023/08/24 05:41:57;;;;;;;14.13;10.80;;;16.10;99.90;;;;;;4983121;28;95851;-34
2023/08/24 05:44:22;;;;;;;11.95;9.73;;;16.20;99.90;;;;;;4985585;28;94825;-36
2023/08/24 05:46:48;;;;;;;12.13;10.10;;;16.30;99.90;;;;;;4991230;28;93374;-32
2023/08/24 05:49:14;;;;;;;11.25;10.07;;;16.30;99.90;;;;;;4995360;28;94501;-33
2023/08/24 05:51:39;;;;;;;11.55;10.07;;;16.40;99.90;;;;;;4994152;28;95772;-34
2023/08/24 05:54:05;;;;;;;12.85;10.63;;;16.40;99.90;;;;;;4993240;28;94608;-33
2023/08/24 05:56:31;;;;;;;10.90;9.73;;;16.40;99.90;;;;;;4993751;28;94533;-30
2023/08/24 05:58:58;;;;;;;13.13;11.30;;;16.40;99.90;;;;;;4977369;28;93290;-35
2023/08/24 06:01:24;;;;;;;13.98;10.73;;;16.40;99.90;;;;;;4982450;28;93012;-36
2023/08/24 06:03:50;;;;;;;13.88;10.60;;;16.40;99.90;;;;;;4993905;28;94716;-33
2023/08/24 06:06:16;;;;;;;18.60;10.90;;;16.40;99.90;;;;;;4982696;28;95218;-37
2023/08/24 06:08:42;;;;;;;15.40;10.57;;;16.40;99.90;;;;;;4987792;28;94064;-33
2023/08/24 06:11:08;;;;;;;12.32;10.18;;;16.50;99.90;;;;;;4988003;28;94191;-33
2023/08/24 06:13:34;;;;;;;12.35;10.32;;;16.50;99.90;;;;;;4988167;28;94487;-31
2023/08/24 06:15:59;;;;;;;10.63;9.32;;;16.50;99.90;;;;;;4984261;28;93598;-33
2023/08/24 06:18:25;;;;;;;10.73;9.73;;;16.60;99.90;;;;;;4989235;28;93576;-36
2023/08/24 06:20:51;;;;;;;12.20;10.63;;;16.70;99.90;;;;;;4984545;28;95198;-34
2023/08/24 06:23:17;;;;;;;12.57;10.75;;;16.80;99.90;;;;;;4987845;28;94042;-34
2023/08/24 06:25:43;;;;;;;12.75;11.45;;;16.80;99.90;;;;;;4984530;28;93344;-36
2023/08/24 06:28:09;;;;;;;10.75;9.65;;;16.80;99.90;;;;;;4987600;28;94386;-34
2023/08/24 06:30:43;;;;;;;14.68;10.80;;;17.00;99.90;;;;;;4986545;28;96428;-34
2023/08/24 06:33:10;;;;;;;10.48;9.45;;;17.10;99.90;;;;;;4986688;28;95434;-36
2023/08/24 06:35:36;;;;;;;15.13;10.57;;;17.20;99.90;;;;;;4986981;28;93624;-35
2023/08/24 06:38:03;;;;;;;14.05;10.95;;;17.30;99.90;;;;;;4989749;28;94370;-35
2023/08/24 06:40:29;;;;;;;19.60;11.90;;;17.40;99.90;;;;;;4988290;28;94872;-32
2023/08/24 06:42:55;;;;;;;16.35;10.95;;;17.40;99.90;;;;;;4984547;28;94278;-35
2023/08/24 06:45:20;;;;;;;17.35;11.05;;;17.50;99.90;;;;;;4987264;28;93528;-36
2023/08/24 06:47:46;;;;;;;14.38;12.75;;;17.60;99.90;;;;;;4994248;28;92450;-37
2023/08/24 06:50:12;;;;;;;15.85;11.88;;;17.60;99.90;;;;;;4980698;28;94697;-35
2023/08/24 06:52:38;;;;;;;16.83;13.50;;;17.70;99.90;;;;;;4993950;28;94504;-34
2023/08/24 06:55:04;;;;;;;14.60;12.95;;;17.80;99.90;;;;;;4992163;28;93517;-32
2023/08/24 06:57:30;;;;;;;16.10;13.35;;;17.90;99.90;;;;;;4994575;28;93115;-35
2023/08/24 06:59:56;;;;;;;15.00;12.82;;;18.10;99.90;;;;;;4992317;28;94561;-37
2023/08/24 07:02:22;;;;;;;15.93;14.27;;;18.40;99.90;;;;;;4992773;28;94745;-34
2023/08/24 07:04:48;;;;;;;23.98;15.30;;;18.60;99.90;;;;;;4994200;28;93951;-34
2023/08/24 07:07:14;;;;;;;28.48;16.45;;;18.90;99.90;;;;;;4990883;28;93018;-35
2023/08/24 07:09:39;;;;;;;21.05;16.08;;;18.80;99.90;;;;;;4973573;28;94612;-37
2023/08/24 07:12:07;;;;;;;18.05;14.63;;;18.90;99.90;;;;;;4986366;28;93613;-36
2023/08/24 07:14:36;;;;;;;19.60;16.47;;;19.00;99.90;;;;;;4974784;28;92755;-34
2023/08/24 07:17:01;;;;;;;19.25;14.43;;;19.20;99.90;;;;;;4973526;28;93814;-35
2023/08/24 07:19:27;;;;;;;19.17;15.20;;;19.30;99.90;;;;;;4977737;28;96355;-35
2023/08/24 07:21:53;;;;;;;17.50;15.13;;;19.40;99.90;;;;;;4989959;28;95485;-34
2023/08/24 07:24:26;;;;;;;18.48;14.32;;;19.50;99.90;;;;;;4983347;28;93011;-37
2023/08/24 07:26:52;;;;;;;16.45;13.45;;;19.80;99.90;;;;;;4993114;28;93690;-37
2023/08/24 07:29:18;;;;;;;17.88;13.65;;;20.10;99.90;;;;;;4993666;28;94515;-34
2023/08/24 07:31:44;;;;;;;22.08;13.38;;;20.00;99.90;;;;;;4989722;28;94550;-34
2023/08/24 07:34:09;;;;;;;18.13;15.30;;;20.10;99.90;;;;;;4974835;28;92946;-37
2023/08/24 07:36:35;;;;;;;20.58;12.95;;;20.30;99.90;;;;;;4978909;28;94091;-32
2023/08/24 07:39:00;;;;;;;15.55;13.27;;;20.50;99.90;;;;;;4977359;28;94593;-37
2023/08/24 07:41:26;;;;;;;19.42;15.25;;;20.60;99.90;;;;;;4980849;28;94437;-35
2023/08/24 07:43:52;;;;;;;15.95;11.90;;;20.70;99.90;;;;;;4967379;28;95468;-34
2023/08/24 07:46:17;;;;;;;19.20;13.45;;;20.60;99.90;;;;;;4987908;28;93218;-35
2023/08/24 07:48:43;;;;;;;15.95;13.40;;;20.90;99.90;;;;;;4985088;28;94787;-35
2023/08/24 07:51:08;;;;;;;17.17;12.15;;;21.20;99.90;;;;;;4986879;28;94608;-37
2023/08/24 07:53:34;;;;;;;13.15;10.98;;;21.50;99.90;;;;;;4985274;28;94017;-37
2023/08/24 07:56:01;;;;;;;12.95;11.35;;;21.50;99.90;;;;;;4986989;28;93862;-36
2023/08/24 07:58:27;;;;;;;13.93;11.45;;;21.70;99.90;;;;;;4983768;28;94117;-35
2023/08/24 08:00:53;;;;;;;20.40;11.25;;;22.00;99.90;;;;;;4987695;28;94580;-34
2023/08/24 08:03:19;;;;;;;17.10;13.13;;;22.20;99.90;;;;;;4978025;28;92197;-37
2023/08/24 08:05:46;;;;;;;19.50;11.43;;;22.10;99.90;;;;;;4988241;28;94706;-34
2023/08/24 08:08:13;;;;;;;16.08;11.43;;;22.30;99.90;;;;;;4975911;28;94671;-32
2023/08/24 08:10:39;;;;;;;13.77;10.70;;;22.30;99.90;;;;;;4978669;28;95515;-34
2023/08/24 08:13:05;;;;;;;14.70;13.20;;;22.30;99.90;;;;;;4977524;28;94613;-35
2023/08/24 08:15:30;;;;;;;14.45;12.15;;;22.50;99.90;;;;;;4978859;28;93509;-33
2023/08/24 08:17:56;;;;;;;19.88;12.20;;;22.50;99.90;;;;;;4978800;28;94450;-37
2023/08/24 08:20:21;;;;;;;14.93;12.18;;;22.60;99.90;;;;;;4982557;28;94681;-37
2023/08/24 08:22:47;;;;;;;12.30;10.63;;;22.70;99.90;;;;;;4980430;28;93691;-36
2023/08/24 08:25:13;;;;;;;11.98;10.25;;;23.10;99.90;;;;;;5025561;22;94875;-32
2023/08/24 08:27:39;;;;;;;11.60;10.30;;;;;;;;;;4983259;28;94948;-33
2023/08/24 08:30:05;;;;;;;12.15;11.00;;;23.40;99.90;;;;;;4965108;28;96119;-35
2023/08/24 08:32:31;;;;;;;14.77;12.52;;;23.40;99.90;;;;;;4982021;28;93971;-36
2023/08/24 08:34:58;;;;;;;13.15;11.85;;;23.50;99.90;;;;;;4985750;28;93282;-34
2023/08/24 08:37:24;;;;;;;14.50;12.07;;;23.50;99.90;;;;;;4979962;28;95450;-36
2023/08/24 08:39:49;;;;;;;13.45;10.93;;;23.50;99.90;;;;;;4983085;28;94158;-34
2023/08/24 08:42:15;;;;;;;12.32;10.85;;;23.70;99.90;;;;;;4980181;28;93714;-35
2023/08/24 08:44:43;;;;;;;14.02;11.80;;;23.60;99.90;;;;;;4983371;28;92201;-34
2023/08/24 08:47:10;;;;;;;;;;;23.40;99.90;;;;;;4988394;28;96869;-34
2023/08/24 08:49:38;;;;;;;12.52;11.35;;;23.60;99.90;;;;;;4998624;28;94103;-33
2023/08/24 08:52:04;;;;;;;14.93;13.07;;;23.50;99.90;;;;;;4982376;28;94490;-35
2023/08/24 08:54:29;;;;;;;15.27;12.68;;;23.40;99.90;;;;;;4994939;28;93744;-33
2023/08/24 08:56:55;;;;;;;17.00;11.85;;;23.40;99.90;;;;;;4994118;28;96207;-36
2023/08/24 08:59:22;;;;;;;13.27;11.20;;;23.60;99.90;;;;;;4995974;28;96774;-33
2023/08/24 09:01:50;;;;;;;13.13;11.80;;;23.70;99.90;;;;;;4984899;28;92914;-33
2023/08/24 09:04:16;;;;;;;15.25;11.50;;;23.80;99.90;;;;;;4983958;28;93039;-33
2023/08/24 09:06:42;;;;;;;12.55;11.30;;;24.00;99.90;;;;;;4993836;28;94471;-34
2023/08/24 09:09:08;;;;;;;16.65;11.55;;;24.10;99.90;;;;;;4989965;28;94930;-36
2023/08/24 09:11:34;;;;;;;13.50;11.98;;;24.20;99.90;;;;;;4989547;28;93639;-34
2023/08/24 09:14:00;;;;;;;14.50;13.13;;;24.10;99.90;;;;;;4988546;28;93550;-33
2023/08/24 09:16:29;;;;;;;15.50;12.20;;;24.10;99.90;;;;;;4986736;28;94834;-32
2023/08/24 09:18:55;;;;;;;15.07;13.43;;;24.00;99.90;;;;;;4989355;28;95170;-35
2023/08/24 09:21:20;;;;;;;13.82;12.48;;;24.10;99.90;;;;;;4988685;28;95224;-37
2023/08/24 09:23:54;;;;;;;13.38;11.98;;;24.20;99.90;;;;;;4983481;28;92701;-36
2023/08/24 09:26:30;;;;;;;14.30;12.48;;;24.20;99.90;;;;;;4988558;28;94118;-34
2023/08/24 09:29:00;;;;;;;17.23;13.38;;;24.20;99.90;;;;;;4965724;28;97658;-35
2023/08/24 09:31:39;;;;;;;14.40;12.98;;;24.10;99.90;;;;;;4986661;28;93037;-33
2023/08/24 09:34:06;;;;;;;14.32;11.60;;;24.10;99.90;;;;;;4987753;28;94592;-35
2023/08/24 09:36:36;;;;;;;15.38;12.55;;;24.00;99.90;;;;;;4985653;28;95371;-34
2023/08/24 09:39:06;;;;;;;12.40;11.15;;;24.20;99.90;;;;;;4990905;28;94470;-34
2023/08/24 09:41:44;;;;;;;15.50;13.68;;;24.40;99.90;;;;;;4982287;28;92090;-36
2023/08/24 09:44:11;;;;;;;20.35;15.50;;;24.40;99.90;;;;;;4987203;28;92656;-34
2023/08/24 09:46:38;;;;;;;20.50;14.30;;;24.40;99.90;;;;;;5002747;28;96376;-34
2023/08/24 09:49:08;;;;;;;12.50;11.07;;;24.40;99.90;;;;;;4976197;28;97845;-33
2023/08/24 09:51:35;;;;;;;16.13;11.68;;;24.50;99.90;;;;;;4975859;28;94808;-32
2023/08/24 09:54:06;;;;;;;15.00;13.48;;;24.40;99.90;;;;;;4975550;28;94446;-33
2023/08/24 09:56:38;;;;;;;15.73;11.75;;;24.40;99.90;;;;;;4974713;28;94897;-36
2023/08/24 09:59:13;;;;;;;14.38;12.18;;;24.20;99.90;;;;;;4976371;28;95342;-36
2023/08/24 10:01:43;;;;;;;13.18;11.52;;;24.20;99.90;;;;;;4984440;28;94928;-34
2023/08/24 10:04:10;;;;;;;13.20;10.30;;;24.20;99.90;;;;;;4995394;28;92346;-36
2023/08/24 10:06:38;;;;;;;11.43;9.40;;;24.20;99.90;;;;;;4988787;28;95089;-36
2023/08/24 10:09:07;;;;;;;10.32;9.40;;;24.20;99.90;;;;;;4989746;28;95552;-36
2023/08/24 10:11:36;;;;;;;10.93;9.68;;;24.20;99.90;;;;;;4990116;28;94422;-34
2023/08/24 10:14:31;;;;;;;10.90;9.73;;;24.10;99.90;;;;;;4995914;28;93143;-33
2023/08/24 10:16:57;;;;;;;11.55;9.15;;;24.00;99.90;;;;;;5003319;28;94361;-33
2023/08/24 10:19:25;;;;;;;9.60;8.57;;;24.00;99.90;;;;;;5002084;28;94586;-36
2023/08/24 10:21:53;;;;;;;11.97;10.13;;;24.00;99.90;;;;;;4996654;28;94126;-33
2023/08/24 10:24:20;;;;;;;12.05;10.20;;;24.10;99.90;;;;;;4978638;28;96433;-34
2023/08/24 10:26:47;;;;;;;11.07;9.88;;;24.00;99.90;;;;;;4961996;28;96564;-35
2023/08/24 10:29:14;;;;;;;11.15;9.48;;;24.00;99.90;;;;;;4979505;28;94806;-35
2023/08/24 10:31:41;;;;;;;11.38;9.93;;;24.00;99.90;;;;;;4960739;28;92120;-37
2023/08/24 10:34:08;;;;;;;12.50;10.63;;;24.10;99.90;;;;;;4964139;28;93094;-34
2023/08/24 10:36:34;;;;;;;12.85;11.23;;;24.00;99.90;;;;;;4958320;28;95872;-34
2023/08/24 10:39:06;;;;;;;11.95;10.23;;;24.10;99.90;;;;;;4975157;28;95316;-34
2023/08/24 10:41:48;;;;;;;10.82;9.57;;;24.10;99.90;;;;;;4954987;28;94875;-36
2023/08/24 10:44:24;;;;;;;11.27;8.82;;;24.20;99.90;;;;;;4960600;28;92129;-33
2023/08/24 10:47:25;;;;;;;10.52;9.15;;;24.30;99.90;;;;;;4971527;28;95055;-34
2023/08/24 10:49:54;;;;;;;12.23;11.02;;;24.30;99.90;;;;;;4970574;28;94277;-34
2023/08/24 10:52:23;;;;;;;10.98;9.88;;;24.30;99.90;;;;;;4970674;28;93072;-34
2023/08/24 10:54:51;;;;;;;10.50;9.50;;;24.10;99.90;;;;;;4970819;28;91729;-34
2023/08/24 10:57:27;;;;;;;13.68;12.27;;;24.20;99.90;;;;;;4964910;28;95075;-36
2023/08/24 11:00:07;;;;;;;12.27;10.77;;;24.30;99.90;;;;;;4970665;28;94253;-34
2023/08/24 11:02:43;;;;;;;11.85;10.55;;;24.30;99.90;;;;;;4981383;28;95807;-37
2023/08/24 11:05:18;;;;;;;12.73;11.50;;;24.30;99.90;;;;;;4963138;28;94853;-34
2023/08/24 11:07:55;;;;;;;10.98;9.85;;;24.30;99.90;;;;;;4972138;28;94828;-35
2023/08/24 11:10:22;;;;;;;15.83;12.20;;;24.30;99.90;;;;;;4967518;28;95675;-35
2023/08/24 11:13:04;;;;;;;12.27;11.00;;;24.20;99.90;;;;;;4954779;28;94997;-37
2023/08/24 11:15:34;;;;;;;12.43;11.32;;;24.40;99.90;;;;;;4970903;28;94095;-33
2023/08/24 11:18:18;;;;;;;15.18;12.85;;;24.30;99.90;;;;;;4962582;28;94228;-36
2023/08/24 11:20:44;;;;;;;13.50;11.13;;;24.40;99.90;;;;;;4954259;28;96344;-37
2023/08/24 11:23:10;;;;;;;11.30;10.35;;;24.40;99.90;;;;;;4954327;28;94275;-35
2023/08/24 11:25:36;;;;;;;13.23;10.98;;;24.40;99.90;;;;;;4967511;28;93245;-35
2023/08/24 11:28:04;;;;;;;13.20;11.40;;;24.60;99.90;;;;;;4973619;28;95246;-33
2023/08/24 11:30:31;;;;;;;15.90;11.48;;;24.70;99.90;;;;;;4989516;28;97497;-34
2023/08/24 11:32:56;;;;;;;13.20;10.53;;;24.70;99.90;;;;;;4977020;28;93417;-33
2023/08/24 11:35:23;;;;;;;15.00;13.68;;;24.90;99.90;;;;;;4980804;28;94716;-35
2023/08/24 11:37:56;;;;;;;14.75;12.32;;;24.90;99.90;;;;;;4976528;28;94768;-39
2023/08/24 11:40:28;;;;;;;13.18;12.05;;;24.90;99.90;;;;;;4979985;28;94316;-33
2023/08/24 11:42:57;;;;;;;12.32;11.07;;;25.00;99.90;;;;;;4980698;28;95001;-35
2023/08/24 11:45:23;;;;;;;12.70;11.40;;;25.00;99.90;;;;;;4978973;28;93014;-36
2023/08/24 11:47:50;;;;;;;15.63;11.63;;;25.00;99.90;;;;;;4978543;28;94791;-33
2023/08/24 11:50:17;;;;;;;15.27;11.50;;;24.80;99.90;;;;;;4982849;28;95288;-34
2023/08/24 11:52:43;;;;;;;10.85;9.63;;;24.90;99.90;;;;;;4986253;28;94319;-37
2023/08/24 11:55:09;;;;;;;10.35;9.32;;;24.90;99.90;;;;;;4983454;28;94451;-34
2023/08/24 11:57:38;;;;;;;10.18;9.27;;;25.00;99.90;;;;;;4990623;28;93475;-34
2023/08/24 12:00:05;;;;;;;10.27;8.45;;;25.10;99.90;;;;;;4991318;28;93143;-34
2023/08/24 12:02:32;;;;;;;11.00;9.98;;;25.10;99.90;;;;;;5009571;28;94527;-38
2023/08/24 12:04:58;;;;;;;9.10;8.10;;;25.10;99.90;;;;;;5003500;28;94264;-35
2023/08/24 12:07:25;;;;;;;16.92;9.55;;;25.10;99.90;;;;;;4988818;28;94623;-37
2023/08/24 12:09:54;;;;;;;10.00;9.10;;;25.10;99.90;;;;;;4984767;28;94080;-35
2023/08/24 12:12:23;;;;;;;12.02;10.68;;;25.20;99.90;;;;;;4993605;28;92235;-34
2023/08/24 12:14:49;;;;;;;14.40;8.93;;;25.10;99.90;;;;;;4982126;28;93173;-36
2023/08/24 12:17:16;;;;;;;9.55;8.75;;;25.00;99.90;;;;;;4954731;28;96023;-38
2023/08/24 12:19:56;;;;;;;9.20;8.25;;;25.00;99.90;;;;;;4985383;28;96642;-34
2023/08/24 12:22:22;;;;;;;8.70;8.00;;;24.90;99.90;;;;;;4992862;28;93076;-34
2023/08/24 12:24:47;;;;;;;10.68;9.75;;;24.90;99.90;;;;;;5005898;28;94929;-33
2023/08/24 12:27:20;;;;;;;9.40;8.55;;;24.90;99.90;;;;;;5000296;28;95334;-34
2023/08/24 12:29:46;;;;;;;13.02;8.90;;;24.90;99.90;;;;;;4997689;28;94365;-34
2023/08/24 12:32:12;;;;;;;10.10;7.82;;;24.90;99.90;;;;;;4957186;28;93353;-36